createdAt,value
2022-12-13T00:01:24.918Z,96.04
2022-12-13T00:04:00.880Z,96.04
2022-12-13T00:06:29.385Z,95.98
2022-12-13T00:08:57.314Z,95.55
2022-12-13T00:11:25.048Z,95.80
2022-12-13T00:13:51.886Z,94.97
2022-12-13T00:16:22.805Z,94.58
2022-12-13T00:18:51.771Z,94.63
2022-12-13T00:21:20.977Z,94.85
2022-12-13T00:23:48.145Z,95.34
2022-12-13T00:26:21.401Z,95.31
2022-12-13T00:28:49.504Z,95.37
2022-12-13T00:34:05.520Z,96.10
2022-12-13T00:36:32.635Z,96.05
2022-12-13T00:39:02.784Z,96.33
2022-12-13T00:41:34.955Z,96.27
2022-12-13T00:44:03.410Z,96.17
2022-12-13T00:46:31.354Z,95.69
2022-12-13T00:49:01.243Z,96.32
2022-12-13T00:51:31.652Z,96.28
2022-12-13T00:54:00.015Z,96.01
2022-12-13T00:56:29.524Z,95.75
2022-12-13T00:58:57.265Z,95.03
2022-12-13T01:01:27.660Z,94.92
2022-12-13T01:03:56.719Z,95.27
2022-12-13T01:06:28.989Z,95.09
2022-12-13T01:08:55.955Z,94.55
2022-12-13T01:11:23.634Z,94.53
2022-12-13T01:13:50.721Z,93.88
2022-12-13T01:16:18.760Z,93.78
2022-12-13T01:18:46.060Z,94.00
2022-12-13T01:21:16.722Z,93.82
2022-12-13T01:23:44.111Z,93.98
2022-12-13T01:26:17.257Z,94.05
2022-12-13T01:28:44.189Z,93.70
2022-12-13T01:31:14.162Z,93.27
2022-12-13T01:33:42.115Z,92.43
2022-12-13T01:36:14.340Z,92.58
2022-12-13T01:38:41.484Z,92.42
2022-12-13T01:41:20.367Z,92.86
2022-12-13T01:43:57.531Z,93.40
2022-12-13T01:46:24.842Z,93.27
2022-12-13T01:49:00.868Z,93.12
2022-12-13T01:51:35.919Z,92.89
2022-12-13T01:54:06.458Z,93.14
2022-12-13T01:56:48.814Z,93.65
2022-12-13T01:59:19.135Z,93.29
2022-12-13T02:01:50.164Z,93.81
2022-12-13T02:04:26.051Z,94.02
2022-12-13T02:06:56.169Z,93.95
2022-12-13T02:09:25.182Z,94.20
2022-12-13T02:11:53.056Z,94.39
2022-12-13T02:14:19.912Z,94.58
2022-12-13T02:16:55.975Z,94.27
2022-12-13T02:20:07.149Z,94.20
2022-12-13T02:22:46.176Z,94.39
2022-12-13T02:25:36.238Z,94.06
2022-12-13T02:28:31.571Z,93.92
2022-12-13T02:31:06.014Z,94.04
2022-12-13T02:33:57.944Z,94.03
2022-12-13T02:36:38.015Z,94.03
2022-12-13T02:39:15.599Z,93.93
2022-12-13T02:41:53.151Z,94.68
2022-12-13T02:44:28.605Z,94.85
2022-12-13T02:47:01.032Z,94.57
2022-12-13T02:49:31.630Z,94.63
2022-12-13T02:52:00.434Z,94.04
2022-12-13T02:54:27.523Z,94.03
2022-12-13T02:56:58.556Z,93.98
2022-12-13T02:59:36.393Z,94.08
2022-12-13T03:02:21.599Z,94.17
2022-12-13T03:05:32.820Z,93.46
2022-12-13T03:08:21.730Z,93.32
2022-12-13T03:11:13.121Z,93.56
2022-12-13T03:13:54.821Z,92.47
2022-12-13T03:16:25.825Z,92.20
2022-12-13T03:18:55.320Z,92.35
2022-12-13T03:21:22.989Z,92.63
2022-12-13T03:23:50.277Z,92.99
2022-12-13T03:26:21.386Z,93.04
2022-12-13T03:28:49.144Z,92.93
2022-12-13T03:31:16.329Z,93.40
2022-12-13T03:33:43.336Z,93.78
2022-12-13T03:36:12.149Z,93.18
2022-12-13T03:38:40.744Z,93.37
2022-12-13T03:41:14.075Z,93.63
2022-12-13T03:43:41.054Z,93.48
2022-12-13T03:46:09.121Z,93.92
2022-12-13T03:48:36.376Z,93.92
2022-12-13T03:51:04.037Z,94.04
2022-12-13T03:53:33.350Z,93.94
2022-12-13T03:56:03.512Z,94.48
2022-12-13T03:58:35.597Z,94.22
2022-12-13T04:01:07.174Z,93.30
2022-12-13T04:03:34.500Z,93.66
2022-12-13T04:06:01.857Z,93.81
2022-12-13T04:08:29.066Z,93.70
2022-12-13T04:10:56.361Z,93.87
2022-12-13T04:13:35.444Z,93.84
2022-12-13T04:16:03.160Z,93.69
2022-12-13T04:18:30.186Z,93.65
2022-12-13T04:20:58.103Z,93.67
2022-12-13T04:23:25.072Z,94.33
2022-12-13T04:25:52.528Z,94.42
2022-12-13T04:28:22.698Z,94.63
2022-12-13T04:30:53.101Z,94.08
2022-12-13T04:33:22.432Z,93.77
2022-12-13T04:35:50.652Z,94.19
2022-12-13T04:38:18.218Z,94.08
2022-12-13T04:40:45.569Z,94.46
2022-12-13T04:43:12.480Z,94.31
2022-12-13T04:45:39.735Z,94.46
2022-12-13T04:48:07.015Z,94.17
2022-12-13T04:50:34.184Z,93.48
2022-12-13T04:53:01.046Z,93.56
2022-12-13T04:55:28.158Z,93.18
2022-12-13T04:57:55.117Z,93.04
2022-12-13T05:00:23.437Z,93.01
2022-12-13T05:02:50.642Z,93.04
2022-12-13T05:05:18.699Z,92.71
2022-12-13T05:07:46.320Z,92.61
2022-12-13T05:10:31.954Z,93.25
2022-12-13T05:13:01.172Z,93.65
2022-12-13T05:15:30.202Z,93.17
2022-12-13T05:18:09.986Z,92.76
2022-12-13T05:20:41.247Z,93.05
2022-12-13T05:23:09.032Z,93.04
2022-12-13T05:25:38.893Z,93.47
2022-12-13T05:28:08.828Z,93.15
2022-12-13T05:30:54.144Z,93.12
2022-12-13T05:33:22.523Z,93.33
2022-12-13T05:35:49.976Z,93.17
2022-12-13T05:38:17.594Z,93.09
2022-12-13T05:40:44.965Z,93.26
2022-12-13T05:43:22.118Z,92.87
2022-12-13T05:45:50.554Z,93.05
2022-12-13T05:48:24.666Z,93.47
2022-12-13T05:51:10.172Z,93.59
2022-12-13T05:53:42.271Z,93.46
2022-12-13T05:56:11.182Z,93.40
2022-12-13T05:58:39.763Z,93.17
2022-12-13T06:01:09.609Z,93.27
2022-12-13T06:03:36.738Z,93.05
2022-12-13T06:06:05.534Z,92.94
2022-12-13T06:08:32.934Z,93.40
2022-12-13T06:11:11.078Z,92.54
2022-12-13T06:13:44.122Z,91.78
2022-12-13T06:16:22.936Z,92.32
2022-12-13T06:19:00.940Z,92.51
2022-12-13T06:21:44.055Z,92.75
2022-12-13T06:24:17.774Z,91.80
2022-12-13T06:26:45.968Z,90.88
2022-12-13T06:29:23.258Z,91.22
2022-12-13T06:32:02.358Z,92.11
2022-12-13T06:34:32.871Z,91.65
2022-12-13T06:37:05.451Z,91.74
2022-12-13T06:39:33.766Z,91.73
2022-12-13T06:42:03.400Z,92.35
2022-12-13T06:44:30.288Z,92.14
2022-12-13T06:47:10.719Z,91.71
2022-12-13T06:49:42.259Z,92.14
2022-12-13T06:52:14.814Z,91.81
2022-12-13T06:54:43.667Z,91.66
2022-12-13T06:57:12.959Z,91.10
2022-12-13T06:59:40.665Z,91.18
2022-12-13T07:02:24.548Z,91.46
2022-12-13T07:04:53.741Z,91.92
2022-12-13T07:07:21.069Z,90.28
2022-12-13T07:09:48.038Z,89.62
2022-12-13T07:12:15.202Z,89.64
2022-12-13T07:14:42.136Z,90.20
2022-12-13T07:17:10.809Z,90.23
2022-12-13T07:19:38.083Z,89.87
2022-12-13T07:22:06.076Z,89.00
2022-12-13T07:24:35.265Z,88.84
2022-12-13T07:27:04.088Z,88.77
2022-12-13T07:29:30.987Z,88.12
2022-12-13T07:32:01.521Z,88.17
2022-12-13T07:34:30.130Z,88.61
2022-12-13T07:36:57.375Z,87.90
2022-12-13T07:39:27.651Z,87.54
2022-12-13T07:41:56.119Z,87.87
2022-12-13T07:44:24.327Z,87.46
2022-12-13T07:46:52.527Z,87.32
2022-12-13T07:49:19.911Z,87.39
2022-12-13T07:51:49.216Z,87.14
2022-12-13T07:54:16.976Z,86.74
2022-12-13T07:56:44.303Z,87.29
2022-12-13T07:59:13.102Z,87.24
2022-12-13T08:01:40.577Z,86.84
2022-12-13T08:04:10.617Z,86.99
2022-12-13T08:06:38.643Z,87.16
2022-12-13T08:09:06.393Z,86.91
2022-12-13T08:11:34.059Z,87.93
2022-12-13T08:14:01.200Z,88.87
2022-12-13T08:16:30.281Z,88.64
2022-12-13T08:19:01.622Z,88.20
2022-12-13T08:21:57.337Z,87.78
2022-12-13T08:24:27.955Z,87.50
2022-12-13T08:27:03.018Z,87.18
2022-12-13T08:29:34.423Z,87.53
2022-12-13T08:32:08.621Z,87.29
2022-12-13T08:34:36.554Z,87.89
2022-12-13T08:37:04.911Z,87.54
2022-12-13T08:39:37.022Z,86.97
2022-12-13T08:42:25.293Z,86.78
2022-12-13T08:44:53.674Z,87.13
2022-12-13T08:47:26.726Z,87.07
2022-12-13T08:50:01.429Z,86.66
2022-12-13T08:52:31.960Z,86.04
2022-12-13T08:55:12.724Z,85.19
2022-12-13T08:57:40.736Z,85.62
2022-12-13T09:00:11.636Z,85.73
2022-12-13T09:02:39.008Z,85.86
2022-12-13T09:05:08.261Z,86.26
2022-12-13T09:07:36.762Z,85.95
2022-12-13T09:10:07.111Z,85.86
2022-12-13T09:13:01.923Z,85.55
2022-12-13T09:15:34.324Z,86.03
2022-12-13T09:18:04.873Z,84.91
2022-12-13T09:20:41.289Z,84.79
2022-12-13T09:23:14.079Z,85.33
2022-12-13T09:26:05.954Z,84.43
2022-12-13T09:28:34.766Z,83.77
2022-12-13T09:31:01.961Z,83.85
2022-12-13T09:33:30.690Z,84.31
2022-12-13T09:36:01.315Z,83.63
2022-12-13T09:38:28.822Z,82.66
2022-12-13T09:41:00.884Z,83.39
2022-12-13T09:43:42.966Z,83.49
2022-12-13T09:46:26.645Z,83.67
2022-12-13T09:49:03.635Z,83.37
2022-12-13T09:51:43.736Z,82.58
2022-12-13T09:54:18.903Z,82.81
2022-12-13T09:56:50.919Z,82.78
2022-12-13T09:59:39.600Z,83.89
2022-12-13T10:02:23.599Z,82.84
2022-12-13T10:04:52.350Z,82.78
2022-12-13T10:07:28.981Z,82.90
2022-12-13T10:10:04.015Z,83.45
2022-12-13T10:12:32.681Z,83.49
2022-12-13T10:15:02.399Z,83.10
2022-12-13T10:17:38.399Z,82.56
2022-12-13T10:20:06.402Z,82.81
2022-12-13T10:22:33.746Z,83.91
2022-12-13T10:25:04.066Z,82.50
2022-12-13T10:27:46.871Z,82.75
2022-12-13T10:30:19.690Z,83.40
2022-12-13T10:33:01.299Z,83.93
2022-12-13T10:35:41.630Z,84.88
2022-12-13T10:38:09.023Z,85.34
2022-12-13T10:40:40.912Z,84.59
2022-12-13T10:43:12.508Z,84.15
2022-12-13T10:45:40.470Z,85.25
2022-12-13T10:48:21.401Z,85.59
2022-12-13T10:51:13.154Z,85.64
2022-12-13T10:53:48.148Z,85.95
2022-12-13T10:56:23.385Z,86.81
2022-12-13T10:59:17.026Z,87.73
2022-12-13T11:01:44.719Z,87.82
2022-12-13T11:04:34.885Z,87.19
2022-12-13T11:07:23.765Z,86.63
2022-12-13T11:09:52.794Z,87.77
2022-12-13T11:12:26.228Z,88.02
2022-12-13T11:14:58.291Z,87.90
2022-12-13T11:17:28.347Z,87.84
2022-12-13T11:20:00.582Z,87.95
2022-12-13T11:22:32.957Z,88.68
2022-12-13T11:25:08.945Z,87.93
2022-12-13T11:27:44.517Z,86.79
2022-12-13T11:30:38.407Z,86.36
2022-12-13T11:33:28.643Z,85.20
2022-12-13T11:36:24.854Z,86.05
2022-12-13T11:38:58.065Z,84.79
2022-12-13T11:41:33.111Z,85.10
2022-12-13T11:44:19.148Z,85.17
2022-12-13T11:46:56.044Z,84.62
2022-12-13T11:49:38.774Z,85.59
2022-12-13T11:52:30.117Z,85.08
2022-12-13T11:55:01.655Z,85.28
2022-12-13T11:57:44.218Z,85.82
2022-12-13T12:00:37.480Z,85.11
2022-12-13T12:03:15.756Z,84.91
2022-12-13T12:05:49.499Z,85.67
2022-12-13T12:08:35.237Z,86.19
2022-12-13T12:11:17.738Z,85.34
2022-12-13T12:14:00.709Z,84.99
2022-12-13T12:16:47.146Z,85.53
2022-12-13T12:19:20.673Z,85.59
2022-12-13T12:22:14.268Z,85.92
2022-12-13T12:24:54.346Z,85.25
2022-12-13T12:27:46.809Z,85.79
2022-12-13T12:30:23.267Z,86.08
2022-12-13T12:33:17.845Z,85.45
2022-12-13T12:36:06.453Z,85.15
2022-12-13T12:38:54.375Z,85.23
2022-12-13T12:41:48.402Z,85.60
2022-12-13T12:44:33.714Z,85.60
2022-12-13T12:48:07.230Z,86.00
2022-12-13T12:50:45.985Z,86.18
2022-12-13T12:53:16.172Z,85.34
2022-12-13T12:56:06.047Z,85.52
2022-12-13T12:59:01.243Z,85.59
2022-12-13T13:01:43.379Z,86.19
2022-12-13T13:04:22.550Z,85.95
2022-12-13T13:07:41.420Z,85.78
2022-12-13T13:10:26.229Z,85.17
2022-12-13T13:13:11.473Z,85.13
2022-12-13T13:16:01.114Z,85.21
2022-12-13T13:18:46.428Z,85.23
2022-12-13T13:21:46.243Z,85.59
2022-12-13T13:24:15.876Z,84.75
2022-12-13T13:26:52.748Z,84.18
2022-12-13T13:29:29.432Z,84.88
2022-12-13T13:32:27.978Z,85.12
2022-12-13T13:35:28.496Z,84.74
2022-12-13T13:37:57.211Z,84.95
2022-12-13T13:40:32.034Z,84.51
2022-12-13T13:43:05.424Z,84.46
2022-12-13T13:46:03.164Z,85.36
2022-12-13T13:48:49.384Z,84.71
2022-12-13T13:51:49.360Z,84.70
2022-12-13T13:55:03.508Z,84.59
2022-12-13T13:58:10.919Z,83.87
2022-12-13T14:01:15.505Z,83.99
2022-12-13T14:04:09.187Z,84.43
2022-12-13T14:07:15.508Z,84.58
2022-12-13T14:10:02.823Z,85.07
2022-12-13T14:12:48.619Z,84.98
2022-12-13T14:15:49.441Z,86.00
2022-12-13T14:18:32.490Z,86.22
2022-12-13T14:21:08.316Z,86.48
2022-12-13T14:23:44.601Z,86.21
2022-12-13T14:26:23.443Z,86.38
2022-12-13T14:28:55.398Z,86.62
2022-12-13T14:31:26.189Z,86.67
2022-12-13T14:33:55.929Z,86.61
2022-12-13T14:36:29.146Z,86.41
2022-12-13T14:39:05.187Z,86.80
2022-12-13T14:41:34.129Z,86.89
2022-12-13T14:44:39.802Z,87.46
2022-12-13T14:47:08.018Z,87.29
2022-12-13T14:49:39.075Z,86.84
2022-12-13T14:52:09.389Z,87.31
2022-12-13T14:54:46.285Z,86.52
2022-12-13T14:57:17.187Z,86.50
2022-12-13T14:59:53.289Z,87.04
2022-12-13T15:02:30.974Z,87.49
2022-12-13T15:05:01.739Z,87.92
2022-12-13T15:07:33.674Z,88.20
2022-12-13T15:10:05.191Z,87.91
2022-12-13T15:12:32.226Z,87.70
2022-12-13T15:15:02.468Z,87.31
2022-12-13T15:17:35.803Z,87.98
2022-12-13T15:20:22.466Z,88.21
2022-12-13T15:23:11.740Z,88.23
2022-12-13T15:25:42.545Z,88.67
2022-12-13T15:28:16.856Z,88.66
2022-12-13T15:30:47.618Z,88.56
2022-12-13T15:33:25.230Z,88.53
2022-12-13T15:36:04.271Z,88.58
2022-12-13T15:38:32.129Z,88.40
2022-12-13T15:41:00.835Z,89.09
2022-12-13T15:43:36.266Z,89.34
2022-12-13T15:46:06.608Z,89.46
2022-12-13T15:48:48.191Z,88.86
2022-12-13T15:51:28.455Z,89.57
2022-12-13T15:54:03.212Z,89.08
2022-12-13T15:56:36.553Z,88.90
2022-12-13T15:59:05.062Z,89.19
2022-12-13T16:01:36.797Z,88.53
2022-12-13T16:04:05.965Z,88.41
2022-12-13T16:06:33.923Z,88.00
2022-12-13T16:09:03.957Z,88.33
2022-12-13T16:11:39.151Z,88.52
2022-12-13T16:14:27.144Z,88.43
2022-12-13T16:16:55.751Z,88.21
2022-12-13T16:19:23.080Z,88.25
2022-12-13T16:21:50.314Z,87.90
2022-12-13T16:24:17.249Z,88.21
2022-12-13T16:26:46.822Z,88.39
2022-12-13T16:29:21.232Z,88.73
2022-12-13T16:31:48.974Z,88.53
2022-12-13T16:34:18.110Z,88.28
2022-12-13T16:36:47.550Z,88.51
2022-12-13T16:39:15.245Z,88.58
2022-12-13T16:41:45.696Z,88.97
2022-12-13T16:44:35.785Z,88.26
2022-12-13T16:47:13.096Z,88.96
2022-12-13T16:49:47.323Z,88.89
2022-12-13T16:52:15.069Z,89.15
2022-12-13T16:54:42.144Z,88.53
2022-12-13T16:57:09.562Z,88.05
2022-12-13T16:59:36.368Z,88.39
2022-12-13T17:02:04.379Z,88.58
2022-12-13T17:04:31.403Z,88.90
2022-12-13T17:06:58.530Z,88.03
2022-12-13T17:09:25.518Z,87.90
2022-12-13T17:11:52.968Z,88.21
2022-12-13T17:14:19.808Z,87.87
2022-12-13T17:16:47.397Z,87.76
2022-12-13T17:19:15.718Z,87.81
2022-12-13T17:21:43.153Z,87.52
2022-12-13T17:24:10.100Z,87.61
2022-12-13T17:26:37.251Z,87.66
2022-12-13T17:29:05.134Z,88.39
2022-12-13T17:31:35.653Z,87.87
2022-12-13T17:34:04.152Z,88.36
2022-12-13T17:36:31.657Z,87.95
2022-12-13T17:38:58.823Z,88.06
2022-12-13T17:41:26.345Z,88.09
2022-12-13T17:43:53.166Z,88.56
2022-12-13T17:46:20.506Z,88.69
2022-12-13T17:48:48.855Z,88.20
2022-12-13T17:51:16.285Z,88.17
2022-12-13T17:53:44.492Z,88.68
2022-12-13T17:56:15.150Z,88.17
2022-12-13T17:58:42.750Z,87.84
2022-12-13T18:01:15.427Z,88.05
2022-12-13T18:03:43.234Z,88.81
2022-12-13T18:06:10.988Z,88.88
2022-12-13T18:08:39.681Z,89.05
2022-12-13T18:11:31.864Z,89.31
2022-12-13T18:13:55.655Z,89.01
2022-12-13T18:16:28.950Z,89.67
2022-12-13T18:19:01.124Z,89.44
2022-12-13T18:21:28.285Z,89.80
2022-12-13T18:23:56.256Z,89.98
2022-12-13T18:26:24.521Z,89.75
2022-12-13T18:28:52.134Z,89.93
2022-12-13T18:31:22.515Z,90.10
2022-12-13T18:33:52.080Z,90.20
2022-12-13T18:36:21.603Z,89.79
2022-12-13T18:38:48.622Z,89.75
2022-12-13T18:41:24.677Z,89.96
2022-12-13T18:44:00.313Z,90.23
2022-12-13T18:46:30.545Z,90.43
2022-12-13T18:48:57.656Z,90.50
2022-12-13T18:51:25.450Z,89.91
2022-12-13T18:53:52.914Z,89.78
2022-12-13T18:56:20.853Z,89.53
2022-12-13T18:58:49.001Z,89.73
2022-12-13T19:01:17.392Z,89.65
2022-12-13T19:03:46.312Z,89.58
2022-12-13T19:06:17.398Z,90.31
2022-12-13T19:08:51.487Z,90.63
2022-12-13T19:11:19.998Z,90.75
2022-12-13T19:13:47.348Z,90.73
2022-12-13T19:16:17.387Z,90.22
2022-12-13T19:18:44.265Z,89.71
2022-12-13T19:21:14.477Z,90.05
2022-12-13T19:23:42.490Z,89.90
2022-12-13T19:26:13.217Z,90.25
2022-12-13T19:28:44.215Z,90.65
2022-12-13T19:31:12.202Z,90.20
2022-12-13T19:33:42.046Z,89.42
2022-12-13T19:36:09.856Z,89.62
2022-12-13T19:38:37.275Z,89.87
2022-12-13T19:41:16.430Z,89.93
2022-12-13T19:43:50.762Z,89.90
2022-12-13T19:46:20.418Z,89.95
2022-12-13T19:48:47.713Z,89.82
2022-12-13T19:51:15.230Z,89.85
2022-12-13T19:53:42.371Z,89.60
2022-12-13T19:56:11.550Z,90.06
2022-12-13T19:58:39.533Z,90.03
2022-12-13T20:01:08.042Z,89.94
2022-12-13T20:03:45.702Z,90.09
2022-12-13T20:06:16.972Z,90.71
2022-12-13T20:08:44.385Z,91.10
2022-12-13T20:11:15.157Z,91.18
2022-12-13T20:13:42.007Z,91.38
2022-12-13T20:16:15.411Z,91.38
2022-12-13T20:18:42.329Z,91.50
2022-12-13T20:21:13.189Z,91.71
2022-12-13T20:23:48.959Z,91.65
2022-12-13T20:26:20.097Z,91.97
2022-12-13T20:28:47.627Z,91.97
2022-12-13T20:31:18.472Z,91.86
2022-12-13T20:33:45.528Z,91.65
2022-12-13T20:36:26.508Z,92.14
2022-12-13T20:38:56.432Z,92.27
2022-12-13T20:41:26.196Z,92.55
2022-12-13T20:43:54.981Z,92.48
2022-12-13T20:46:23.144Z,92.90
2022-12-13T20:48:51.151Z,92.83
2022-12-13T20:51:21.482Z,92.87
2022-12-13T20:53:49.536Z,93.04
2022-12-13T20:56:19.913Z,93.12
2022-12-13T20:58:47.657Z,93.43
2022-12-13T21:01:17.783Z,93.65
2022-12-13T21:03:45.457Z,93.51
2022-12-13T21:06:13.548Z,93.71
2022-12-13T21:08:53.048Z,94.01
2022-12-13T21:11:38.338Z,93.82
2022-12-13T21:14:37.341Z,93.88
2022-12-13T21:17:09.609Z,94.02
2022-12-13T21:19:40.155Z,93.89
2022-12-13T21:22:08.268Z,93.97
2022-12-13T21:24:35.231Z,93.89
2022-12-13T21:27:02.500Z,94.09
2022-12-13T21:29:29.335Z,94.10
2022-12-13T21:31:56.530Z,94.39
2022-12-13T21:34:23.506Z,94.29
2022-12-13T21:36:52.463Z,94.58
2022-12-13T21:39:23.196Z,94.59
2022-12-13T21:41:50.534Z,94.62
2022-12-13T21:44:18.296Z,94.51
2022-12-13T21:49:32.626Z,94.73
2022-12-13T21:51:59.679Z,94.92
2022-12-13T21:54:26.513Z,94.96
2022-12-13T21:57:12.755Z,94.98
2022-12-13T21:59:39.584Z,95.20
2022-12-13T22:02:12.606Z,95.06
2022-12-13T22:04:39.642Z,95.23
2022-12-13T22:07:08.396Z,95.46
2022-12-13T22:09:36.696Z,95.24
2022-12-13T22:12:09.603Z,95.42
2022-12-13T22:14:37.365Z,95.15
2022-12-13T22:17:04.697Z,95.14
2022-12-13T22:19:31.694Z,95.25
2022-12-13T22:21:59.244Z,95.17
2022-12-13T22:24:26.126Z,95.42
2022-12-13T22:26:53.265Z,95.57
2022-12-13T22:29:20.169Z,95.56
2022-12-13T22:31:48.780Z,95.61
2022-12-13T22:34:16.742Z,95.60
2022-12-13T22:36:43.914Z,95.69
2022-12-13T22:39:19.454Z,95.67
2022-12-13T22:41:47.811Z,95.83
2022-12-13T22:44:16.306Z,95.84
2022-12-13T22:46:43.741Z,95.92
2022-12-13T22:49:11.405Z,95.85
2022-12-13T22:51:38.890Z,95.77
2022-12-13T22:54:06.410Z,95.72
2022-12-13T22:56:33.835Z,95.70
2022-12-13T22:59:02.265Z,95.75
2022-12-13T23:01:32.537Z,95.91
2022-12-13T23:04:17.918Z,95.78
2022-12-13T23:06:45.358Z,95.78
2022-12-13T23:09:13.636Z,96.09
2022-12-13T23:11:59.616Z,95.99
2022-12-13T23:14:29.528Z,96.07
2022-12-13T23:16:56.942Z,96.14
2022-12-13T23:19:53.973Z,96.24
2022-12-13T23:22:11.257Z,96.42
2022-12-13T23:24:38.106Z,96.29
2022-12-13T23:27:05.256Z,96.24
2022-12-13T23:29:32.142Z,96.35
2022-12-13T23:31:59.256Z,96.31
2022-12-13T23:34:26.453Z,96.32
2022-12-13T23:36:53.543Z,96.35
2022-12-13T23:39:20.363Z,96.49
2022-12-13T23:41:47.635Z,96.50
2022-12-13T23:44:14.519Z,96.53
2022-12-13T23:46:41.846Z,96.75
2022-12-13T23:49:15.857Z,96.67
2022-12-13T23:51:43.453Z,96.45
2022-12-13T23:54:15.684Z,96.53
2022-12-13T23:56:42.944Z,96.50
2022-12-13T23:59:09.713Z,96.56
